Time;durP1;ratioP1;P1;durP2;ratioP2;P2;SDS_P1;SDS_P2;PMS_P1;PMS_P2;Temp;Humidity;BMP_temperature;BMP_pressure;BME280_temperature;BME280_humidity;BME280_pressure;Samples;Min_cycle;Max_cycle;Signal;HPM_P1;HPM_P2
2021/04/27 00:00:57;;;;;;;1.50;1.20;;;7.50;74.90;;;;;;5035942;28;20524;-80
2021/04/27 00:03:24;;;;;;;1.50;1.30;;;7.50;75.40;;;;;;5032032;28;20470;-82
2021/04/27 00:05:50;;;;;;;1.50;1.20;;;7.50;75.50;;;;;;5030193;28;20483;-82
2021/04/27 00:08:17;;;;;;;1.50;1.20;;;7.40;76.10;;;;;;5028431;28;20469;-80
2021/04/27 00:10:44;;;;;;;1.50;1.20;;;7.40;75.90;;;;;;5034918;28;20535;-82
2021/04/27 00:13:10;;;;;;;1.50;1.20;;;7.30;75.80;;;;;;5033069;28;20554;-82
2021/04/27 00:15:37;;;;;;;1.50;1.20;;;7.30;76.00;;;;;;5033446;28;20496;-82
2021/04/27 00:18:04;;;;;;;1.50;1.20;;;7.30;75.60;;;;;;5035689;28;20463;-82
2021/04/27 00:20:31;;;;;;;1.50;1.20;;;7.30;75.40;;;;;;5031963;28;20487;-81
2021/04/27 00:22:57;;;;;;;1.50;1.20;;;7.30;75.20;;;;;;5032966;28;20526;-82
2021/04/27 00:25:24;;;;;;;1.50;1.30;;;7.30;74.90;;;;;;5032774;28;20534;-82
2021/04/27 00:27:53;;;;;;;1.50;1.20;;;7.30;75.00;;;;;;5026597;28;20464;-82
2021/04/27 00:30:21;;;;;;;1.50;1.30;;;7.30;74.70;;;;;;5028247;28;20495;-81
2021/04/27 00:32:48;;;;;;;1.50;1.20;;;7.30;74.40;;;;;;5029684;28;20467;-82
2021/04/27 00:35:15;;;;;;;1.50;1.20;;;7.30;74.40;;;;;;5034523;28;20475;-81
2021/04/27 00:37:42;;;;;;;1.50;1.20;;;7.30;74.10;;;;;;5026909;28;20463;-82
2021/04/27 00:40:11;;;;;;;5.20;4.67;;;7.30;74.50;;;;;;5018574;28;20491;-82
2021/04/27 00:42:39;;;;;;;1.50;1.20;;;7.30;74.20;;;;;;5034585;28;20492;-82
2021/04/27 00:45:10;;;;;;;1.50;1.20;;;7.30;74.50;;;;;;5031221;28;20574;-82
2021/04/27 00:47:37;;;;;;;1.50;1.20;;;7.30;74.60;;;;;;5031922;28;20846;-82
2021/04/27 00:50:06;;;;;;;1.50;1.20;;;7.30;74.60;;;;;;5023801;28;20675;-82
2021/04/27 00:52:33;;;;;;;1.50;1.20;;;7.20;75.40;;;;;;5031334;28;20467;-82
2021/04/27 00:54:59;;;;;;;1.50;1.40;;;7.20;75.00;;;;;;5026363;28;20459;-82
2021/04/27 00:57:25;;;;;;;1.50;1.20;;;7.20;75.30;;;;;;5024313;28;20515;-82
2021/04/27 00:59:52;;;;;;;1.50;1.20;;;7.20;75.60;;;;;;5028241;28;20495;-82
2021/04/27 01:02:19;;;;;;;3.80;3.60;;;7.10;75.40;;;;;;5027681;28;20470;-82
2021/04/27 01:04:45;;;;;;;1.43;1.20;;;7.10;75.70;;;;;;5033365;28;20587;-82
2021/04/27 01:07:16;;;;;;;1.50;1.20;;;7.00;75.60;;;;;;5035275;28;20470;-82
2021/04/27 01:09:45;;;;;;;1.50;1.20;;;6.90;76.60;;;;;;5034103;28;20544;-82
2021/04/27 01:12:17;;;;;;;1.50;1.20;;;6.90;76.00;;;;;;5028230;28;20461;-82
2021/04/27 01:14:49;;;;;;;1.50;1.20;;;6.90;75.90;;;;;;5025830;28;20469;-81
2021/04/27 01:17:17;;;;;;;1.50;1.30;;;6.90;75.20;;;;;;5035809;28;20498;-82
2021/04/27 01:19:47;;;;;;;1.50;1.20;;;6.90;74.60;;;;;;5029769;28;20558;-81
2021/04/27 01:22:20;;;;;;;1.50;1.30;;;6.90;74.20;;;;;;5028306;28;20459;-80
2021/04/27 01:24:52;;;;;;;1.50;1.23;;;6.90;74.20;;;;;;5025793;28;20485;-80
2021/04/27 01:27:20;;;;;;;1.50;1.30;;;6.90;73.90;;;;;;5029753;28;20506;-82
2021/04/27 01:29:47;;;;;;;1.50;1.20;;;7.00;73.80;;;;;;5024372;28;20557;-82
2021/04/27 01:32:13;;;;;;;1.50;1.30;;;7.00;73.50;;;;;;5027195;28;20846;-81
2021/04/27 01:34:43;;;;;;;1.50;1.10;;;7.00;73.50;;;;;;5027273;28;20459;-83
2021/04/27 01:37:10;;;;;;;1.50;1.30;;;7.00;73.40;;;;;;5023423;28;20837;-85
2021/04/27 01:39:38;;;;;;;1.50;1.20;;;7.00;73.60;;;;;;5021974;28;20484;-82
2021/04/27 01:42:06;;;;;;;1.50;1.30;;;7.00;73.30;;;;;;5027704;28;20485;-82
2021/04/27 01:44:36;;;;;;;1.50;1.27;;;7.00;73.10;;;;;;5026736;28;20519;-81
2021/04/27 01:47:04;;;;;;;1.50;1.40;;;7.00;73.10;;;;;;5030040;28;20466;-82
2021/04/27 01:49:31;;;;;;;1.50;1.30;;;7.00;73.40;;;;;;5024975;28;20903;-80
2021/04/27 01:51:58;;;;;;;1.50;1.20;;;7.00;73.60;;;;;;5017613;28;20471;-80
2021/04/27 01:54:26;;;;;;;1.50;1.30;;;6.90;73.20;;;;;;5025490;28;21087;-81
2021/04/27 01:56:53;;;;;;;1.50;1.20;;;6.90;73.30;;;;;;5023985;28;20997;-81
2021/04/27 01:59:20;;;;;;;1.50;1.20;;;6.90;73.10;;;;;;5022534;28;20710;-82
2021/04/27 02:01:47;;;;;;;1.50;1.30;;;6.90;73.20;;;;;;5019581;28;20829;-82
2021/04/27 02:04:20;;;;;;;1.50;1.30;;;6.90;73.50;;;;;;5029567;28;20655;-81
2021/04/27 02:06:47;;;;;;;1.50;1.20;;;6.90;73.60;;;;;;5018142;28;20513;-81
2021/04/27 02:09:15;;;;;;;1.50;1.20;;;6.80;73.70;;;;;;5027233;28;21014;-81
2021/04/27 02:11:44;;;;;;;1.50;1.20;;;6.80;73.70;;;;;;5028316;28;20475;-81
2021/04/27 02:14:12;;;;;;;1.50;1.20;;;6.80;73.80;;;;;;5023756;28;20992;-82
2021/04/27 02:16:45;;;;;;;1.50;1.20;;;6.70;73.70;;;;;;5023026;28;20532;-81
2021/04/27 02:19:14;;;;;;;1.50;1.20;;;6.70;74.20;;;;;;5029175;28;20487;-81
2021/04/27 02:21:41;;;;;;;1.50;1.20;;;6.60;74.50;;;;;;5029287;28;20466;-81
2021/04/27 02:24:09;;;;;;;1.50;1.20;;;6.60;74.50;;;;;;5024354;28;20974;-81
2021/04/27 02:26:36;;;;;;;1.50;1.13;;;6.50;75.20;;;;;;5030836;28;20473;-81
2021/04/27 02:29:05;;;;;;;1.50;1.20;;;6.50;76.10;;;;;;5023270;28;20488;-81
2021/04/27 02:31:32;;;;;;;1.50;1.20;;;6.40;77.00;;;;;;5024157;28;21038;-81
2021/04/27 02:33:59;;;;;;;1.50;1.20;;;6.30;76.80;;;;;;5021684;28;20556;-81
2021/04/27 02:36:27;;;;;;;1.50;1.20;;;6.30;76.70;;;;;;5021576;28;20451;-82
2021/04/27 02:38:54;;;;;;;1.50;1.30;;;6.20;77.00;;;;;;5030696;28;20923;-81
2021/04/27 02:41:20;;;;;;;1.50;1.30;;;6.20;77.20;;;;;;5020009;28;20464;-82
2021/04/27 02:43:48;;;;;;;1.50;1.30;;;6.10;77.30;;;;;;5021954;28;20944;-81
2021/04/27 02:46:14;;;;;;;1.50;1.30;;;6.10;76.80;;;;;;5032475;28;20877;-81
2021/04/27 02:48:41;;;;;;;1.50;1.23;;;6.10;76.70;;;;;;5025801;28;20916;-81
2021/04/27 02:51:07;;;;;;;1.73;1.63;;;6.00;77.50;;;;;;5025513;28;20484;-82
2021/04/27 02:53:34;;;;;;;1.50;1.30;;;6.00;77.80;;;;;;5025427;28;20491;-81
2021/04/27 02:56:00;;;;;;;1.50;1.20;;;6.00;77.90;;;;;;5016303;28;20456;-81
2021/04/27 02:58:27;;;;;;;1.50;1.30;;;6.00;78.00;;;;;;5022206;28;20887;-81
2021/04/27 03:00:53;;;;;;;1.50;1.30;;;5.90;78.40;;;;;;5028249;28;20487;-80
2021/04/27 03:03:20;;;;;;;1.50;1.30;;;5.90;78.40;;;;;;5017698;28;20499;-80
2021/04/27 03:05:47;;;;;;;1.50;1.30;;;5.90;78.60;;;;;;5016911;28;20503;-82
2021/04/27 03:08:13;;;;;;;1.50;1.20;;;5.80;78.50;;;;;;5021510;28;20469;-81
2021/04/27 03:10:40;;;;;;;1.50;1.30;;;5.80;78.40;;;;;;5019105;28;20573;-82
2021/04/27 03:13:08;;;;;;;1.53;1.30;;;5.80;79.00;;;;;;5021039;28;20533;-81
2021/04/27 03:15:34;;;;;;;1.50;1.30;;;5.70;79.10;;;;;;5029210;28;20487;-82
2021/04/27 03:18:01;;;;;;;1.50;1.30;;;5.70;79.40;;;;;;5021520;28;20459;-82
2021/04/27 03:20:28;;;;;;;1.50;1.30;;;5.70;79.30;;;;;;5027215;28;21014;-82
2021/04/27 03:22:54;;;;;;;1.50;1.30;;;5.60;79.40;;;;;;5025844;28;20542;-80
2021/04/27 03:25:20;;;;;;;1.50;1.30;;;5.60;79.60;;;;;;5029838;28;20529;-82
2021/04/27 03:27:48;;;;;;;1.50;1.30;;;5.60;79.60;;;;;;5029930;28;20503;-80
2021/04/27 03:30:15;;;;;;;1.50;1.30;;;5.50;80.20;;;;;;5023976;28;21014;-81
2021/04/27 03:32:41;;;;;;;1.50;1.30;;;5.50;80.30;;;;;;5021431;28;20455;-81
2021/04/27 03:35:10;;;;;;;1.50;1.23;;;5.50;80.30;;;;;;5017000;28;21040;-82
2021/04/27 03:37:37;;;;;;;1.50;1.20;;;5.50;80.40;;;;;;5024233;28;20474;-82
2021/04/27 03:40:05;;;;;;;1.50;1.27;;;5.40;80.60;;;;;;5026827;28;20486;-81
2021/04/27 03:42:33;;;;;;;1.50;1.20;;;5.40;80.70;;;;;;5025610;28;21010;-83
2021/04/27 03:45:00;;;;;;;1.53;1.30;;;5.40;81.40;;;;;;5023618;28;20494;-82
2021/04/27 03:47:26;;;;;;;1.50;1.30;;;5.30;82.10;;;;;;5021537;28;20472;-81
2021/04/27 03:49:53;;;;;;;1.50;1.40;;;5.30;81.70;;;;;;5026742;28;20501;-81
2021/04/27 03:52:19;;;;;;;1.50;1.30;;;5.30;81.80;;;;;;5024603;28;21189;-82
2021/04/27 03:54:46;;;;;;;1.50;1.30;;;5.20;82.30;;;;;;5031273;28;20459;-81
2021/04/27 03:57:12;;;;;;;1.50;1.30;;;5.20;81.80;;;;;;5026381;28;20472;-80
2021/04/27 03:59:38;;;;;;;1.50;1.30;;;5.20;82.40;;;;;;5030805;28;20480;-81
2021/04/27 04:02:05;;;;;;;1.50;1.30;;;5.10;82.00;;;;;;5030222;28;21116;-80
2021/04/27 04:04:32;;;;;;;1.50;1.30;;;5.10;81.50;;;;;;5033931;28;20491;-81
2021/04/27 04:06:58;;;;;;;1.50;1.30;;;5.10;80.60;;;;;;5027578;28;20553;-80
2021/04/27 04:09:25;;;;;;;1.50;1.30;;;5.10;80.30;;;;;;5033330;28;21004;-81
2021/04/27 04:11:52;;;;;;;1.57;1.40;;;5.10;79.90;;;;;;5027585;28;20493;-82
2021/04/27 04:14:18;;;;;;;1.57;1.40;;;5.10;79.40;;;;;;5036890;28;21010;-80
2021/04/27 04:16:45;;;;;;;1.50;1.30;;;5.20;79.00;;;;;;5027821;28;20464;-82
2021/04/27 04:19:12;;;;;;;1.50;1.30;;;5.30;78.30;;;;;;5029751;28;20586;-80
2021/04/27 04:21:39;;;;;;;1.53;1.40;;;5.30;78.00;;;;;;5031989;28;20566;-81
2021/04/27 04:24:07;;;;;;;1.50;1.30;;;5.40;77.70;;;;;;5033910;28;20531;-81
2021/04/27 04:26:33;;;;;;;1.50;1.30;;;5.50;77.20;;;;;;5032756;28;20948;-78
2021/04/27 04:29:00;;;;;;;1.50;1.40;;;5.50;77.10;;;;;;5035894;28;20471;-81
2021/04/27 04:31:26;;;;;;;1.50;1.30;;;5.50;76.40;;;;;;5030918;28;20467;-81
2021/04/27 04:33:53;;;;;;;1.50;1.30;;;5.60;76.60;;;;;;5029450;28;20885;-81
2021/04/27 04:36:20;;;;;;;1.50;1.30;;;5.70;75.90;;;;;;5027555;28;20460;-81
2021/04/27 04:38:46;;;;;;;1.50;1.30;;;5.70;76.00;;;;;;5027879;28;20448;-80
2021/04/27 04:41:13;;;;;;;1.50;1.30;;;5.80;75.70;;;;;;5024209;28;20454;-81
2021/04/27 04:43:40;;;;;;;1.50;1.30;;;5.80;75.60;;;;;;5026083;28;20458;-81
2021/04/27 04:46:06;;;;;;;1.50;1.30;;;5.80;75.50;;;;;;5023207;28;20491;-82
2021/04/27 04:48:36;;;;;;;1.50;1.20;;;5.80;75.00;;;;;;5034811;28;20475;-81
2021/04/27 04:51:07;;;;;;;1.50;1.30;;;5.90;75.20;;;;;;5039399;28;20867;-81
2021/04/27 04:53:35;;;;;;;1.50;1.30;;;5.90;75.00;;;;;;5032066;28;20516;-81
2021/04/27 04:56:01;;;;;;;1.50;1.30;;;5.90;75.20;;;;;;5036061;28;20456;-80
2021/04/27 04:58:28;;;;;;;1.50;1.20;;;6.00;75.20;;;;;;5033447;28;20895;-79
2021/04/27 05:00:54;;;;;;;1.50;1.30;;;6.00;75.00;;;;;;5031653;28;20487;-81
2021/04/27 05:03:24;;;;;;;1.50;1.30;;;6.10;75.10;;;;;;5033408;28;20531;-81
2021/04/27 05:05:50;;;;;;;1.50;1.30;;;6.10;74.90;;;;;;5036239;28;20832;-81
2021/04/27 05:08:22;;;;;;;1.50;1.30;;;6.10;74.80;;;;;;5030716;28;20467;-81
2021/04/27 05:10:50;;;;;;;1.50;1.30;;;6.20;74.50;;;;;;5026429;28;20484;-81
2021/04/27 05:13:19;;;;;;;1.50;1.20;;;6.20;73.80;;;;;;5033433;28;20935;-81
2021/04/27 05:15:46;;;;;;;1.50;1.30;;;6.30;73.80;;;;;;5032249;28;20494;-83
2021/04/27 05:18:13;;;;;;;1.50;1.30;;;6.40;73.60;;;;;;5031365;28;20499;-81
2021/04/27 05:20:40;;;;;;;1.50;1.30;;;6.50;72.90;;;;;;5034780;28;20993;-80
2021/04/27 05:23:06;;;;;;;1.50;1.30;;;6.60;72.50;;;;;;5036133;28;20467;-81
2021/04/27 05:25:33;;;;;;;1.50;1.20;;;6.70;72.50;;;;;;5036647;28;20534;-82
2021/04/27 05:28:04;;;;;;;1.50;1.17;;;6.90;72.10;;;;;;5037331;28;20471;-81
2021/04/27 05:30:30;;;;;;;1.50;1.20;;;7.10;71.70;;;;;;5034092;28;20491;-82
2021/04/27 05:32:57;;;;;;;1.50;1.20;;;7.30;71.20;;;;;;5023398;28;20955;-82
2021/04/27 05:35:27;;;;;;;1.50;1.20;;;7.50;70.80;;;;;;5026421;28;20459;-81
2021/04/27 05:37:53;;;;;;;1.50;1.20;;;7.70;70.50;;;;;;5030438;28;20463;-81
2021/04/27 05:40:23;;;;;;;1.50;1.20;;;7.80;69.60;;;;;;5022384;28;20511;-82
2021/04/27 05:42:50;;;;;;;1.50;1.20;;;8.00;69.00;;;;;;5017787;28;20453;-81
2021/04/27 05:45:17;;;;;;;1.50;1.10;;;8.00;69.10;;;;;;5023999;28;20503;-82
2021/04/27 05:47:44;;;;;;;1.50;1.20;;;8.20;68.90;;;;;;5021509;28;20463;-81
2021/04/27 05:50:11;;;;;;;1.50;1.10;;;8.40;68.50;;;;;;5021211;28;20489;-81
2021/04/27 05:52:38;;;;;;;1.50;1.20;;;8.60;68.10;;;;;;5025198;28;21025;-82
2021/04/27 05:55:06;;;;;;;1.50;1.17;;;8.90;67.40;;;;;;5026434;28;20946;-82
2021/04/27 05:57:32;;;;;;;1.47;1.10;;;9.00;66.50;;;;;;5025090;28;20745;-81
2021/04/27 06:00:02;;;;;;;1.50;1.13;;;9.10;66.00;;;;;;5014592;28;21045;-82
2021/04/27 06:03:02;;;;;;;1.50;1.20;;;9.20;66.50;;;;;;5030151;28;20823;-82
2021/04/27 06:05:29;;;;;;;1.50;1.10;;;9.30;66.20;;;;;;5026028;28;20475;-82
2021/04/27 06:07:55;;;;;;;1.47;1.10;;;9.40;65.70;;;;;;5018311;28;20459;-82
2021/04/27 06:10:28;;;;;;;1.50;1.13;;;9.50;66.00;;;;;;5025354;28;20581;-83
2021/04/27 06:12:54;;;;;;;1.50;1.10;;;9.50;65.30;;;;;;5034672;28;20530;-81
2021/04/27 06:15:21;;;;;;;1.50;1.10;;;9.60;65.40;;;;;;5031497;28;20489;-81
2021/04/27 06:17:47;;;;;;;1.50;1.10;;;9.70;65.70;;;;;;5025066;28;20460;-81
2021/04/27 06:20:14;;;;;;;1.50;1.10;;;9.70;65.20;;;;;;5029240;28;20524;-81
2021/04/27 06:22:42;;;;;;;1.50;1.10;;;9.90;65.50;;;;;;5029880;28;20469;-81
2021/04/27 06:25:10;;;;;;;1.47;1.10;;;10.00;65.20;;;;;;5038853;28;20482;-79
2021/04/27 06:27:37;;;;;;;1.47;1.10;;;10.10;64.70;;;;;;5023247;28;20472;-80
2021/04/27 06:30:06;;;;;;;1.47;1.10;;;10.30;64.40;;;;;;5025944;28;20525;-80
2021/04/27 06:32:33;;;;;;;1.50;1.10;;;10.50;63.60;;;;;;5025147;28;20467;-79
2021/04/27 06:34:59;;;;;;;1.50;1.10;;;10.50;63.10;;;;;;5029863;28;20488;-82
2021/04/27 06:37:26;;;;;;;1.47;1.07;;;10.70;63.30;;;;;;5034768;28;20534;-81
2021/04/27 06:39:53;;;;;;;1.50;1.10;;;10.80;62.60;;;;;;5031974;28;20959;-81
2021/04/27 06:42:20;;;;;;;1.50;1.10;;;10.90;62.20;;;;;;5033344;28;20464;-81
2021/04/27 06:44:47;;;;;;;1.50;1.10;;;11.10;62.00;;;;;;5026052;28;20487;-82
2021/04/27 06:47:14;;;;;;;1.50;1.20;;;11.30;61.90;;;;;;5030849;28;20467;-82
2021/04/27 06:49:41;;;;;;;1.50;1.10;;;11.30;61.60;;;;;;5026299;28;20483;-80
2021/04/27 06:52:09;;;;;;;1.50;1.00;;;11.40;61.40;;;;;;5029453;28;20460;-82
2021/04/27 06:54:36;;;;;;;1.50;1.20;;;11.40;60.20;;;;;;5034990;28;20960;-81
2021/04/27 06:57:18;;;;;;;1.50;1.17;;;11.60;61.00;;;;;;5031637;28;21052;-83
2021/04/27 06:59:45;;;;;;;1.50;1.03;;;11.60;60.50;;;;;;5030475;28;20487;-82
2021/04/27 07:02:13;;;;;;;1.50;1.03;;;11.70;60.00;;;;;;5023539;28;20467;-83
2021/04/27 07:04:40;;;;;;;1.47;1.00;;;11.70;60.30;;;;;;5018760;28;21077;-81
2021/04/27 07:07:07;;;;;;;1.43;1.00;;;11.80;59.50;;;;;;5025963;28;20463;-82
2021/04/27 07:09:33;;;;;;;1.47;1.00;;;11.90;59.30;;;;;;5022904;28;20476;-83
2021/04/27 07:12:00;;;;;;;1.50;1.00;;;11.90;59.00;;;;;;5024624;28;20467;-82
2021/04/27 07:14:28;;;;;;;1.50;1.10;;;12.00;59.20;;;;;;5025517;28;20466;-81
2021/04/27 07:16:55;;;;;;;1.50;1.10;;;12.10;59.30;;;;;;5020667;28;20678;-82
2021/04/27 07:19:21;;;;;;;1.50;1.00;;;12.30;59.60;;;;;;5025746;28;20491;-81
2021/04/27 07:21:48;;;;;;;1.50;1.00;;;12.50;58.70;;;;;;5018777;28;20475;-81
2021/04/27 07:24:14;;;;;;;2.20;2.00;;;12.60;57.90;;;;;;5024741;28;20479;-82
2021/04/27 07:26:42;;;;;;;1.47;1.00;;;12.70;57.90;;;;;;5029345;28;20573;-82
2021/04/27 07:29:08;;;;;;;1.50;1.00;;;12.90;58.20;;;;;;5028539;28;20503;-81
2021/04/27 07:31:36;;;;;;;1.50;1.00;;;13.00;58.20;;;;;;5032502;28;20467;-80
2021/04/27 07:34:03;;;;;;;1.50;1.00;;;13.20;58.00;;;;;;5017982;28;20460;-81
2021/04/27 07:36:30;;;;;;;1.43;0.90;;;13.30;57.40;;;;;;5024690;28;20491;-82
2021/04/27 07:38:56;;;;;;;1.50;1.00;;;13.50;57.60;;;;;;5027919;28;20467;-82
2021/04/27 07:41:25;;;;;;;1.50;1.00;;;13.70;57.10;;;;;;5031436;28;20922;-84
2021/04/27 07:43:51;;;;;;;1.43;1.00;;;13.80;56.50;;;;;;5028366;28;20517;-81
2021/04/27 07:46:17;;;;;;;1.50;1.00;;;13.80;56.00;;;;;;5030924;28;20499;-82
2021/04/27 07:48:45;;;;;;;1.47;1.00;;;13.90;56.10;;;;;;5030827;28;20593;-82
2021/04/27 07:51:11;;;;;;;1.47;1.00;;;14.00;55.40;;;;;;5034160;28;20536;-82
2021/04/27 07:53:38;;;;;;;1.47;1.00;;;14.10;55.80;;;;;;5032103;28;20470;-81
2021/04/27 07:56:04;;;;;;;1.50;1.00;;;14.10;55.90;;;;;;5016959;28;20483;-82
2021/04/27 07:58:31;;;;;;;1.50;1.10;;;14.10;55.90;;;;;;5017821;28;20486;-81
2021/04/27 08:00:57;;;;;;;1.50;1.00;;;14.10;55.20;;;;;;5021377;28;20540;-81
2021/04/27 08:03:24;;;;;;;1.50;1.00;;;14.20;55.80;;;;;;5023494;28;21428;-81
2021/04/27 08:05:51;;;;;;;1.47;0.90;;;14.10;54.90;;;;;;5030504;28;20847;-81
2021/04/27 08:08:17;;;;;;;1.60;1.40;;;14.10;54.90;;;;;;5027783;28;20465;-80
2021/04/27 08:10:44;;;;;;;1.50;0.90;;;14.10;54.80;;;;;;5019906;28;20502;-80
2021/04/27 08:13:11;;;;;;;1.47;1.00;;;14.20;55.30;;;;;;5029425;28;20478;-80
2021/04/27 08:15:37;;;;;;;1.47;0.90;;;14.20;55.20;;;;;;5032024;28;20487;-83
2021/04/27 08:18:05;;;;;;;1.43;0.90;;;14.30;54.90;;;;;;5024280;28;20464;-81
2021/04/27 08:20:33;;;;;;;1.40;0.90;;;14.50;55.20;;;;;;5016880;28;20487;-81
2021/04/27 08:23:00;;;;;;;1.50;1.00;;;14.70;54.20;;;;;;5024440;28;20473;-80
2021/04/27 08:25:28;;;;;;;1.50;1.10;;;14.60;53.60;;;;;;5030667;28;20486;-82
2021/04/27 08:27:54;;;;;;;1.43;0.90;;;14.60;54.00;;;;;;5024186;28;20954;-81
2021/04/27 08:30:28;;;;;;;1.50;0.90;;;14.80;54.20;;;;;;5023843;28;20888;-80
2021/04/27 08:32:57;;;;;;;1.43;0.90;;;15.00;53.70;;;;;;5027556;28;20502;-84
2021/04/27 08:38:10;;;;;;;1.50;0.90;;;15.30;53.50;;;;;;5012386;28;20978;-82
2021/04/27 08:40:36;;;;;;;1.50;1.00;;;15.40;53.10;;;;;;5022952;28;20893;-82
2021/04/27 08:43:03;;;;;;;1.93;1.37;;;15.30;53.10;;;;;;5025613;28;20570;-83
2021/04/27 08:45:34;;;;;;;1.50;0.90;;;15.30;53.40;;;;;;5022506;28;20460;-83
2021/04/27 08:48:04;;;;;;;1.50;0.90;;;15.40;53.40;;;;;;5025116;28;21033;-81
2021/04/27 08:50:30;;;;;;;1.47;0.90;;;15.50;53.00;;;;;;5020274;28;20480;-80
2021/04/27 08:52:57;;;;;;;1.50;0.90;;;15.50;53.20;;;;;;5024360;28;20528;-82
2021/04/27 08:55:24;;;;;;;1.90;1.60;;;15.70;53.80;;;;;;5021730;28;20494;-82
2021/04/27 08:57:50;;;;;;;1.47;0.90;;;15.80;54.90;;;;;;5023447;28;20475;-80
2021/04/27 09:00:20;;;;;;;1.47;0.90;;;16.00;53.80;;;;;;5020563;28;20487;-81
2021/04/27 09:02:55;;;;;;;1.50;0.90;;;16.20;53.00;;;;;;5016226;28;20599;-82
2021/04/27 09:05:24;;;;;;;1.50;0.90;;;16.40;51.50;;;;;;5013471;28;20955;-81
2021/04/27 09:07:52;;;;;;;1.50;1.00;;;16.50;52.10;;;;;;5021549;28;20464;-82
2021/04/27 09:10:21;;;;;;;1.50;0.90;;;16.60;51.60;;;;;;5022392;28;20495;-81
2021/04/27 09:12:53;;;;;;;1.47;0.90;;;16.50;51.40;;;;;;5036895;28;21001;-81
2021/04/27 09:15:37;;;;;;;1.50;0.90;;;16.30;51.40;;;;;;5025809;28;20490;-81
2021/04/27 09:18:27;;;;;;;1.50;1.00;;;16.30;51.30;;;;;;5024310;28;20472;-80
2021/04/27 09:20:56;;;;;;;1.47;0.90;;;16.50;52.00;;;;;;5024804;28;20518;-82
2021/04/27 09:23:23;;;;;;;1.47;0.90;;;16.50;51.30;;;;;;5026763;28;20467;-83
2021/04/27 09:26:09;;;;;;;1.50;0.90;;;16.60;50.90;;;;;;5030483;28;20460;-81
2021/04/27 09:28:38;;;;;;;1.50;1.00;;;16.80;50.70;;;;;;5021511;28;20587;-81
2021/04/27 09:31:26;;;;;;;1.50;0.90;;;16.90;50.50;;;;;;5028533;28;21118;-81
2021/04/27 09:33:53;;;;;;;1.47;0.90;;;17.10;50.90;;;;;;5026362;28;20538;-82
2021/04/27 09:36:21;;;;;;;1.50;0.90;;;17.50;50.90;;;;;;5023785;28;20566;-83
2021/04/27 09:38:52;;;;;;;1.50;0.90;;;17.80;49.90;;;;;;5020938;28;20475;-81
2021/04/27 09:41:24;;;;;;;1.47;0.90;;;18.00;50.70;;;;;;5017231;28;20463;-80
2021/04/27 09:43:52;;;;;;;1.50;0.90;;;18.10;51.30;;;;;;5025837;28;20871;-81
2021/04/27 09:46:20;;;;;;;1.50;1.00;;;18.30;50.00;;;;;;5016623;28;20514;-82
2021/04/27 09:48:49;;;;;;;1.50;1.00;;;18.40;49.80;;;;;;5016225;28;20496;-83
2021/04/27 09:51:21;;;;;;;1.50;0.90;;;18.50;50.00;;;;;;5023368;28;20475;-81
2021/04/27 09:53:51;;;;;;;1.43;0.90;;;18.60;49.40;;;;;;5023848;28;20459;-83
2021/04/27 09:56:34;;;;;;;1.43;0.90;;;18.60;49.50;;;;;;5019799;28;20487;-81
2021/04/27 09:59:04;;;;;;;1.47;0.90;;;18.40;49.30;;;;;;5025622;28;20475;-83
2021/04/27 10:01:31;;;;;;;2.27;1.30;;;18.40;49.00;;;;;;5018925;28;21078;-81
2021/04/27 10:03:57;;;;;;;1.43;0.90;;;18.30;49.90;;;;;;5015921;28;20482;-83
2021/04/27 10:06:24;;;;;;;1.47;0.90;;;18.30;48.90;;;;;;5023232;28;20988;-80
2021/04/27 10:08:50;;;;;;;1.50;0.90;;;18.40;48.90;;;;;;5025410;28;20954;-81
2021/04/27 10:11:18;;;;;;;1.47;0.90;;;18.60;49.50;;;;;;5021563;28;20469;-83
2021/04/27 10:13:44;;;;;;;1.50;0.90;;;18.70;47.80;;;;;;5009300;28;20500;-79
2021/04/27 10:16:14;;;;;;;1.50;0.90;;;18.60;48.00;;;;;;5025841;28;20520;-81
2021/04/27 10:18:40;;;;;;;1.47;0.90;;;18.50;47.80;;;;;;5023583;28;20754;-80
2021/04/27 10:21:08;;;;;;;1.50;0.90;;;18.60;48.50;;;;;;5014943;28;20849;-82
2021/04/27 10:23:35;;;;;;;1.47;0.90;;;18.60;48.90;;;;;;5018126;28;20464;-80
2021/04/27 10:26:02;;;;;;;1.47;0.90;;;18.60;48.60;;;;;;5030745;28;20601;-82
2021/04/27 10:28:56;;;;;;;1.47;0.90;;;18.60;48.40;;;;;;5022210;28;20466;-81
2021/04/27 10:31:26;;;;;;;1.50;0.90;;;18.80;48.90;;;;;;5021458;28;20490;-81
2021/04/27 10:34:00;;;;;;;1.47;0.90;;;18.90;48.70;;;;;;5024344;28;20479;-79
2021/04/27 10:36:26;;;;;;;1.50;1.20;;;18.60;48.50;;;;;;5019262;28;20657;-81
2021/04/27 10:38:58;;;;;;;1.43;0.90;;;18.70;49.50;;;;;;5011575;28;20479;-82
2021/04/27 10:41:44;;;;;;;1.43;0.90;;;18.90;48.50;;;;;;5016574;28;20910;-79
2021/04/27 10:44:11;;;;;;;1.47;0.90;;;19.20;50.00;;;;;;5023099;28;20547;-81
2021/04/27 10:46:48;;;;;;;1.43;0.90;;;19.30;48.30;;;;;;5022184;28;20466;-82
2021/04/27 10:49:30;;;;;;;1.40;0.90;;;19.20;47.00;;;;;;5024429;28;20471;-83
2021/04/27 10:51:58;;;;;;;1.50;0.90;;;19.00;47.30;;;;;;5022327;28;20858;-82
2021/04/27 10:54:31;;;;;;;1.47;0.83;;;18.90;47.90;;;;;;5026272;28;20467;-82
2021/04/27 10:57:14;;;;;;;1.43;0.90;;;18.60;47.50;;;;;;5012561;28;20833;-83
2021/04/27 10:59:56;;;;;;;1.50;0.90;;;18.20;47.80;;;;;;5032579;28;21208;-83
2021/04/27 11:02:26;;;;;;;1.47;0.90;;;17.90;48.80;;;;;;5020910;28;20487;-80
2021/04/27 11:04:55;;;;;;;1.50;0.90;;;17.70;48.60;;;;;;5027231;28;20500;-80
2021/04/27 11:07:36;;;;;;;1.47;0.90;;;17.60;48.80;;;;;;5034473;28;20477;-81
2021/04/27 11:10:30;;;;;;;1.43;0.90;;;17.70;49.20;;;;;;5028657;28;20491;-81
2021/04/27 11:13:00;;;;;;;1.50;0.90;;;17.70;48.80;;;;;;5021994;28;20475;-80
2021/04/27 11:15:29;;;;;;;1.47;0.90;;;17.80;48.30;;;;;;5014971;28;20850;-81
2021/04/27 11:18:00;;;;;;;1.47;0.90;;;18.00;50.00;;;;;;5030953;28;20548;-82
2021/04/27 11:20:55;;;;;;;1.50;0.90;;;18.30;51.00;;;;;;5026932;28;20497;-81
2021/04/27 11:23:48;;;;;;;1.47;0.90;;;18.60;50.00;;;;;;5026272;28;20463;-82
2021/04/27 11:26:54;;;;;;;1.43;0.90;;;19.00;49.10;;;;;;5040704;28;21239;-82
2021/04/27 11:29:23;;;;;;;1.47;0.90;;;19.20;48.20;;;;;;5031886;28;20925;-81
2021/04/27 11:32:08;;;;;;;1.50;1.00;;;19.70;49.30;;;;;;5021697;28;20456;-82
2021/04/27 11:35:15;;;;;;;1.47;0.90;;;20.00;47.00;;;;;;5020886;28;20770;-81
2021/04/27 11:37:45;;;;;;;1.47;0.90;;;20.40;46.10;;;;;;5029201;28;20463;-81
2021/04/27 11:40:20;;;;;;;1.47;0.83;;;20.40;46.20;;;;;;5031001;28;20480;-82
2021/04/27 11:42:51;;;;;;;1.50;0.90;;;20.30;48.40;;;;;;5021727;28;20455;-83
2021/04/27 11:45:22;;;;;;;1.50;0.90;;;20.20;45.20;;;;;;5035144;28;20531;-83
2021/04/27 11:47:49;;;;;;;1.47;0.90;;;19.90;45.80;;;;;;5033781;28;20701;-83
2021/04/27 11:50:18;;;;;;;1.50;1.00;;;19.80;46.50;;;;;;5036566;28;20989;-81
2021/04/27 11:55:42;;;;;;;1.47;0.90;;;19.60;45.90;;;;;;5028325;28;20994;-83
2021/04/27 11:58:14;;;;;;;1.47;0.90;;;19.80;45.80;;;;;;5029442;28;20526;-84
2021/04/27 12:00:46;;;;;;;1.50;0.90;;;19.90;45.90;;;;;;5027396;28;20488;-82
2021/04/27 12:03:31;;;;;;;1.47;0.90;;;19.80;46.80;;;;;;5024245;28;20503;-82
2021/04/27 12:06:12;;;;;;;1.47;0.90;;;19.70;46.20;;;;;;5034892;28;20465;-81
2021/04/27 12:08:40;;;;;;;1.50;0.90;;;19.60;45.90;;;;;;5014825;28;20491;-81
2021/04/27 12:11:10;;;;;;;1.47;0.90;;;19.60;45.90;;;;;;5022416;28;20593;-81
2021/04/27 12:13:37;;;;;;;1.50;0.90;;;19.80;46.30;;;;;;5028379;28;20865;-82
2021/04/27 12:16:06;;;;;;;1.43;0.90;;;20.00;50.60;;;;;;5025267;28;20502;-85
2021/04/27 12:18:45;;;;;;;1.50;1.00;;;20.30;46.80;;;;;;5024253;28;20538;-81
2021/04/27 12:21:37;;;;;;;1.43;0.90;;;20.50;45.70;;;;;;5026102;28;20471;-82
2021/04/27 12:24:20;;;;;;;1.50;0.90;;;20.70;45.10;;;;;;5031987;28;20463;-82
2021/04/27 12:26:53;;;;;;;1.43;0.90;;;20.50;44.00;;;;;;5032022;28;20694;-81
2021/04/27 12:29:31;;;;;;;1.50;0.90;;;20.20;45.70;;;;;;5027334;28;20533;-82
2021/04/27 12:32:05;;;;;;;1.50;0.90;;;20.20;46.10;;;;;;5026260;28;20546;-82
2021/04/27 12:34:32;;;;;;;1.50;0.90;;;20.30;45.70;;;;;;5022553;28;21001;-83
2021/04/27 12:36:59;;;;;;;1.43;0.90;;;20.40;45.60;;;;;;5029972;28;20553;-80
2021/04/27 12:39:32;;;;;;;1.43;0.90;;;20.50;46.60;;;;;;5022065;28;20487;-82
2021/04/27 12:42:02;;;;;;;1.40;0.83;;;20.70;45.40;;;;;;5022751;28;20540;-82
2021/04/27 12:44:37;;;;;;;1.47;0.90;;;20.90;44.90;;;;;;5026484;28;20475;-82
2021/04/27 12:47:16;;;;;;;1.47;0.90;;;20.90;45.40;;;;;;5025580;28;20455;-82
2021/04/27 12:49:42;;;;;;;1.40;0.90;;;21.20;45.80;;;;;;5020087;28;20609;-84
2021/04/27 12:52:12;;;;;;;1.43;0.90;;;21.40;45.60;;;;;;5018154;28;20467;-83
2021/04/27 12:54:39;;;;;;;1.47;0.90;;;21.40;43.50;;;;;;5025728;28;20470;-83
2021/04/27 12:59:56;;;;;;;1.47;0.90;;;21.30;45.70;;;;;;5020085;28;20494;-82
2021/04/27 13:02:23;;;;;;;1.50;0.90;;;21.30;43.90;;;;;;5022443;28;20463;-81
2021/04/27 13:05:00;;;;;;;1.40;0.90;;;21.30;43.40;;;;;;5020842;28;20472;-83
2021/04/27 13:07:32;;;;;;;1.40;0.83;;;21.20;43.40;;;;;;5030241;28;21238;-83
2021/04/27 13:10:01;;;;;;;1.40;0.90;;;21.10;43.00;;;;;;5020512;28;20856;-82
2021/04/27 13:12:30;;;;;;;1.43;0.90;;;20.90;42.80;;;;;;5022754;28;21055;-81